Terminal Aerodrome Forecast
Issued by NWS

Home | Current Version | Previous Version | Graphics & Text | Print | Product List | Glossary On
Versions: 1 2 3 4 5 6 7 8 9 10 11 12 13 14 15 16 17 18 19 20 21 22 23 24 25
000
FTUS43 KBIS 210300 AAC
TAFMOT
TAF AMD
KMOT 210332Z 2104/2124 12005KT 2SM +RA BR VCTS FEW008 BKN060CB
     FM210415 00000KT P6SM SCT100
     FM211600 33007KT P6SM SCT035
     FM212300 35008KT P6SM BKN060=

USA.gov is the U.S. government's official web portal to all federal, state and local government web resources and services.